Time;durP1;ratioP1;P1;durP2;ratioP2;P2;SDS_P1;SDS_P2;PMS_P1;PMS_P2;Temp;Humidity;BMP_temperature;BMP_pressure;BME280_temperature;BME280_humidity;BME280_pressure;Samples;Min_cycle;Max_cycle;Signal;HPM_P1;HPM_P2
2022/10/22 00:01:52;;;;;;;8.03;7.43;;;;;;;20.41;39.28;95888.38;6158293;28;102990;-79
2022/10/22 00:04:56;;;;;;;8.27;7.67;;;;;;;20.40;39.21;95883.31;6166928;28;103226;-79
2022/10/22 00:08:00;;;;;;;8.00;7.40;;;;;;;20.39;39.09;95893.16;6166379;28;103387;-79
2022/10/22 00:11:09;;;;;;;8.07;7.47;;;;;;;20.39;39.05;95890.50;6167189;28;103219;-80
2022/10/22 00:14:12;;;;;;;7.40;6.90;;;;;;;20.38;39.38;95885.47;6161140;28;103795;-79
2022/10/22 00:17:15;;;;;;;7.67;7.10;;;;;;;20.37;39.26;95891.84;6167041;28;103275;-79
2022/10/22 00:20:21;;;;;;;8.10;7.50;;;;;;;20.38;39.43;95890.78;6166998;28;106468;-79
2022/10/22 00:23:24;;;;;;;7.63;7.03;;;;;;;20.37;39.40;95891.84;6159466;28;105440;-79
2022/10/22 00:26:27;;;;;;;8.17;7.57;;;;;;;20.38;39.28;95896.09;6166397;28;102931;-79
2022/10/22 00:29:31;;;;;;;6.80;6.30;;;;;;;20.38;39.31;95893.44;6167285;28;104433;-79
2022/10/22 00:32:34;;;;;;;7.67;7.07;;;;;;;20.36;39.33;95891.06;6165900;28;103159;-79
2022/10/22 00:35:38;;;;;;;8.20;7.60;;;;;;;20.36;39.30;95877.75;6157919;28;103404;-79
2022/10/22 00:38:42;;;;;;;7.07;6.57;;;;;;;20.34;39.36;95868.47;6166196;28;102784;-79
2022/10/22 00:41:49;;;;;;;8.10;7.50;;;;;;;20.35;39.34;95864.75;6165719;28;103065;-81
2022/10/22 00:45:19;;;;;;;7.47;6.97;;;;;;;20.33;39.37;95870.31;6166675;28;102798;-79
2022/10/22 00:48:25;;;;;;;7.47;6.90;;;;;;;20.34;39.16;95868.47;6143649;28;105256;-79
2022/10/22 00:51:34;;;;;;;7.60;7.00;;;;;;;20.29;39.46;95859.44;6166406;28;105361;-79
2022/10/22 00:54:38;;;;;;;7.60;7.00;;;;;;;20.34;39.13;95868.47;6165929;28;103251;-79
2022/10/22 00:57:42;;;;;;;7.27;6.77;;;;;;;20.34;39.41;95873.78;6157658;28;103465;-79
2022/10/22 01:00:45;;;;;;;7.50;6.90;;;;;;;20.28;39.26;95865.03;6165887;28;103265;-79
2022/10/22 01:03:49;;;;;;;7.03;6.53;;;;;;;20.31;38.99;95867.94;6166284;28;105693;-79
2022/10/22 01:06:53;;;;;;;7.00;6.50;;;;;;;20.31;39.23;95859.97;6165400;28;103258;-79
2022/10/22 01:10:05;;;;;;;7.70;7.10;;;;;;;20.30;39.58;95846.94;6156950;28;106754;-79
2022/10/22 01:13:21;;;;;;;7.20;6.70;;;;;;;20.29;39.18;95840.03;6166054;28;105206;-79
2022/10/22 01:16:34;;;;;;;6.97;6.47;;;;;;;20.25;39.32;95831.84;6165650;28;104740;-78
2022/10/22 01:19:54;;;;;;;7.90;7.30;;;;;;;20.30;39.05;95834.44;6162346;28;103260;-78
2022/10/22 01:23:06;;;;;;;7.43;6.93;;;;;;;20.27;39.11;95824.38;6162420;28;103315;-78
2022/10/22 01:26:23;;;;;;;7.00;6.50;;;;;;;20.28;39.26;95835.81;6165806;28;103333;-79
2022/10/22 01:29:33;;;;;;;7.40;6.90;;;;;;;20.28;39.41;95831.28;6165201;28;103882;-76
2022/10/22 01:32:41;;;;;;;7.50;6.90;;;;;;;20.27;39.17;95827.03;6158320;28;103475;-76
2022/10/22 01:35:45;;;;;;;7.40;6.90;;;;;;;20.25;39.32;95821.19;6165818;28;103508;-75
2022/10/22 01:38:51;;;;;;;7.70;7.10;;;;;;;20.26;39.46;95822.78;6165848;28;103274;-76
2022/10/22 01:41:55;;;;;;;7.20;6.70;;;;;;;20.27;39.36;95818.25;6165642;28;104958;-76
2022/10/22 01:45:00;;;;;;;6.80;6.30;;;;;;;20.26;39.16;95808.72;6158443;28;103172;-76
2022/10/22 01:48:16;;;;;;;7.40;6.80;;;;;;;20.24;39.36;95806.31;6165066;28;104854;-77
2022/10/22 01:51:29;;;;;;;6.60;6.00;;;;;;;20.25;39.30;95807.13;6164915;28;105421;-76
2022/10/22 01:54:40;;;;;;;7.90;7.30;;;;;;;20.25;39.25;95813.22;6156542;28;105351;-78
2022/10/22 01:57:51;;;;;;;7.40;6.90;;;;;;;20.24;39.26;95818.78;6165260;28;103451;-79
2022/10/22 02:01:00;;;;;;;7.00;6.50;;;;;;;20.23;38.96;95820.66;6165041;28;106606;-78
2022/10/22 02:04:12;;;;;;;6.97;6.47;;;;;;;20.24;39.24;95819.63;6165334;28;106229;-79
2022/10/22 02:07:21;;;;;;;7.50;6.90;;;;;;;20.23;39.36;95818.00;6154870;28;103454;-79
2022/10/22 02:10:25;;;;;;;6.87;6.30;;;;;;;20.21;39.37;95811.38;6164968;28;103311;-79
2022/10/22 02:13:33;;;;;;;7.10;6.60;;;;;;;20.18;38.98;95812.72;6164482;28;106524;-79
2022/10/22 02:16:42;;;;;;;7.10;6.60;;;;;;;20.20;39.13;95823.06;6161755;28;103293;-79
2022/10/22 02:19:51;;;;;;;7.10;6.60;;;;;;;20.20;39.01;95821.22;6161823;28;103231;-78
2022/10/22 02:22:55;;;;;;;6.90;6.30;;;;;;;20.21;39.23;95822.78;6164754;28;103068;-79
2022/10/22 02:26:03;;;;;;;7.40;6.90;;;;;;;20.18;38.72;95812.72;6164718;28;103106;-79
2022/10/22 02:29:13;;;;;;;8.17;7.47;;;;;;;20.18;39.27;95812.72;6156202;28;102962;-78
2022/10/22 02:32:23;;;;;;;7.50;7.00;;;;;;;20.18;38.96;95811.94;6164513;28;103617;-79
2022/10/22 02:35:28;;;;;;;7.10;6.60;;;;;;;20.18;39.17;95810.06;6165029;28;103781;-78
2022/10/22 02:38:33;;;;;;;6.77;6.27;;;;;;;20.18;39.15;95822.56;6164665;28;102953;-78
2022/10/22 02:41:37;;;;;;;6.77;6.27;;;;;;;20.18;39.16;95822.56;6156875;28;103082;-78
2022/10/22 02:44:40;;;;;;;7.27;6.77;;;;;;;20.15;39.00;95815.91;6163997;28;104426;-78
2022/10/22 02:47:45;;;;;;;7.00;6.40;;;;;;;20.17;39.11;95815.66;6164606;28;103356;-78
2022/10/22 02:50:48;;;;;;;7.20;6.60;;;;;;;20.16;39.14;95825.47;6159201;28;104708;-79
2022/10/22 02:53:51;;;;;;;7.90;7.30;;;;;;;20.16;39.04;95840.59;6162368;28;106041;-78
2022/10/22 02:56:54;;;;;;;6.97;6.47;;;;;;;20.16;38.96;95836.09;6164008;28;103521;-78
2022/10/22 02:59:58;;;;;;;7.27;6.77;;;;;;;20.15;39.24;95837.16;6164188;28;102969;-79
2022/10/22 03:03:02;;;;;;;7.60;7.00;;;;;;;20.15;39.14;95839.81;6155825;28;103008;-79
2022/10/22 03:06:06;;;;;;;7.53;6.93;;;;;;;20.14;39.29;95826.81;6166588;28;103367;-79
2022/10/22 03:09:09;;;;;;;6.20;5.80;;;;;;;20.14;39.14;95837.44;6167758;28;103139;-78
2022/10/22 03:12:12;;;;;;;6.93;6.43;;;;;;;20.07;39.18;95824.44;6168853;28;103313;-79
2022/10/22 03:15:15;;;;;;;7.03;6.47;;;;;;;20.11;38.93;95833.47;6160317;28;103780;-78
2022/10/22 03:18:19;;;;;;;6.73;6.23;;;;;;;20.12;39.22;95835.06;6168394;28;107901;-79
2022/10/22 03:21:30;;;;;;;7.13;6.53;;;;;;;20.07;39.09;95816.47;6167309;28;103056;-78
2022/10/22 03:24:37;;;;;;;7.20;6.60;;;;;;;20.13;39.11;95827.88;6164848;28;102914;-78
2022/10/22 03:27:41;;;;;;;7.30;6.80;;;;;;;20.11;39.17;95822.03;6163822;28;103009;-78
2022/10/22 03:30:45;;;;;;;7.53;7.03;;;;;;;20.09;39.10;95819.66;6168608;28;106442;-78
2022/10/22 03:33:49;;;;;;;8.30;7.70;;;;;;;20.09;39.25;95811.69;6167846;28;103042;-78
2022/10/22 03:36:54;;;;;;;7.40;6.87;;;;;;;20.09;39.05;95818.88;6160236;28;102886;-78
2022/10/22 03:39:58;;;;;;;8.13;7.43;;;;;;;20.10;39.22;95823.91;6167664;28;103625;-78
2022/10/22 03:43:01;;;;;;;8.13;7.53;;;;;;;20.05;39.11;95815.97;6168292;28;104256;-79
2022/10/22 03:46:05;;;;;;;7.90;7.20;;;;;;;20.08;38.89;95818.06;6167107;28;103044;-78
2022/10/22 03:49:09;;;;;;;8.00;7.40;;;;;;;20.08;38.91;95810.09;6159700;28;104462;-78
2022/10/22 03:52:14;;;;;;;8.10;7.50;;;;;;;20.09;39.08;95809.03;6167524;28;103376;-78
2022/10/22 03:55:18;;;;;;;7.70;7.10;;;;;;;20.07;39.09;95805.84;6167320;28;103370;-79
2022/10/22 03:58:21;;;;;;;7.73;7.13;;;;;;;20.08;38.77;95817.28;6165110;28;105677;-80
2022/10/22 04:01:24;;;;;;;8.47;7.77;;;;;;;20.00;39.14;95813.34;6163240;28;106655;-78
2022/10/22 04:04:29;;;;;;;7.80;7.20;;;;;;;20.05;39.04;95821.28;6167254;28;106287;-79
2022/10/22 04:07:33;;;;;;;8.10;7.50;;;;;;;20.06;39.06;95819.41;6167237;28;104060;-79
2022/10/22 04:10:36;;;;;;;8.43;7.83;;;;;;;20.02;39.03;95811.22;6159930;28;102981;-78
2022/10/22 04:13:40;;;;;;;8.00;7.40;;;;;;;20.05;39.39;95813.31;6166765;28;105117;-79
2022/10/22 04:16:43;;;;;;;7.90;7.40;;;;;;;20.02;38.90;95813.88;6166063;28;103355;-79
2022/10/22 04:19:47;;;;;;;7.77;7.20;;;;;;;20.03;38.64;95805.63;6166853;28;103023;-79
2022/10/22 04:22:51;;;;;;;8.17;7.53;;;;;;;20.03;38.95;95816.25;6158384;28;103590;-79
2022/10/22 04:25:58;;;;;;;7.97;7.37;;;;;;;20.02;39.03;95803.22;6167417;28;102923;-79
2022/10/22 04:29:02;;;;;;;7.70;7.17;;;;;;;20.02;39.03;95804.03;6166839;28;102967;-79
2022/10/22 04:32:05;;;;;;;7.70;7.10;;;;;;;20.03;39.14;95802.16;6166319;28;103484;-79
2022/10/22 04:35:10;;;;;;;8.10;7.47;;;;;;;20.03;38.86;95805.63;6159029;28;102898;-80
2022/10/22 04:38:13;;;;;;;8.63;8.00;;;;;;;20.00;39.06;95803.50;6166701;28;103111;-79
2022/10/22 04:41:19;;;;;;;7.70;7.20;;;;;;;20.00;38.92;95808.03;6166591;28;103439;-79
2022/10/22 04:44:22;;;;;;;8.50;7.80;;;;;;;20.00;38.90;95800.06;6161536;28;107294;-80
2022/10/22 04:47:25;;;;;;;8.70;8.00;;;;;;;19.99;38.67;95804.56;6164947;28;106240;-79
2022/10/22 04:50:31;;;;;;;8.17;7.57;;;;;;;20.00;39.01;95798.19;6166557;28;107104;-79
2022/10/22 04:53:35;;;;;;;8.43;7.83;;;;;;;20.00;38.89;95800.84;6166434;28;103210;-80
2022/10/22 04:56:38;;;;;;;8.57;7.87;;;;;;;19.96;38.86;95796.34;6157521;28;106835;-79
2022/10/22 04:59:41;;;;;;;8.80;8.10;;;;;;;20.00;39.01;95808.03;6166301;28;104808;-79
2022/10/22 05:02:49;;;;;;;8.37;7.70;;;;;;;20.01;39.04;95814.94;6166544;28;103346;-79
2022/10/22 05:05:54;;;;;;;8.43;7.83;;;;;;;20.01;39.19;95820.25;6165489;28;103170;-79
2022/10/22 05:09:00;;;;;;;8.00;7.40;;;;;;;20.00;39.04;95819.44;6158495;28;103307;-80
2022/10/22 05:12:05;;;;;;;8.70;8.00;;;;;;;20.00;39.04;95810.69;6165683;28;103018;-79
2022/10/22 05:15:10;;;;;;;8.77;8.00;;;;;;;19.99;38.94;95820.50;6165936;28;105386;-79
2022/10/22 05:18:13;;;;;;;8.03;7.43;;;;;;;19.99;38.86;95831.13;6161488;28;105100;-79
2022/10/22 05:21:22;;;;;;;8.73;8.03;;;;;;;20.00;39.06;95837.25;6161083;28;103520;-79
2022/10/22 05:24:26;;;;;;;8.30;7.70;;;;;;;19.99;39.03;95835.63;6165997;28;103333;-79
2022/10/22 05:27:29;;;;;;;8.50;7.90;;;;;;;19.99;38.99;95840.94;6165245;28;104787;-79
2022/10/22 05:30:33;;;;;;;8.33;7.73;;;;;;;19.98;39.33;95842.81;6157135;28;104226;-79
2022/10/22 05:33:36;;;;;;;8.97;8.27;;;;;;;19.98;38.79;95836.69;6165149;28;103423;-79
2022/10/22 05:36:40;;;;;;;8.97;8.27;;;;;;;19.98;39.12;95834.03;6165148;28;103501;-79
2022/10/22 05:39:48;;;;;;;8.50;7.90;;;;;;;19.99;38.83;95846.25;6165450;28;105285;-79
2022/10/22 05:43:08;;;;;;;8.20;7.60;;;;;;;19.99;39.23;95841.75;6157059;28;105063;-79
2022/10/22 05:46:14;;;;;;;9.53;8.73;;;;;;;19.98;38.95;95848.13;6165150;28;103795;-79
2022/10/22 05:49:23;;;;;;;8.47;7.67;;;;;;;19.97;39.07;95843.09;6165680;28;103137;-78
2022/10/22 05:52:28;;;;;;;8.17;7.57;;;;;;;19.99;38.96;95841.75;6161300;28;102999;-79
2022/10/22 05:55:35;;;;;;;8.63;7.93;;;;;;;19.98;38.85;95834.84;6161962;28;105066;-79
2022/10/22 05:58:40;;;;;;;9.07;8.37;;;;;;;20.02;38.92;95835.13;6165889;28;105324;-78
2022/10/22 06:01:43;;;;;;;8.57;7.97;;;;;;;20.09;38.89;95837.47;6164945;28;103217;-79
2022/10/22 06:04:47;;;;;;;8.57;7.90;;;;;;;20.10;38.86;95833.75;6156518;28;103192;-79
2022/10/22 06:07:54;;;;;;;8.43;7.73;;;;;;;20.13;38.68;95839.28;6164638;28;104213;-80
2022/10/22 06:10:58;;;;;;;8.13;7.53;;;;;;;20.13;38.93;95839.28;6165263;28;103271;-79
2022/10/22 06:14:01;;;;;;;7.77;7.17;;;;;;;20.14;38.71;95845.41;6164677;28;103018;-79
2022/10/22 06:17:04;;;;;;;7.70;7.10;;;;;;;20.21;38.86;95849.38;6156435;28;102988;-80
2022/10/22 06:20:09;;;;;;;7.70;7.20;;;;;;;20.36;38.52;95850.38;6164783;28;105906;-79
2022/10/22 06:23:14;;;;;;;8.50;7.80;;;;;;;20.38;38.74;95850.91;6165375;28;102780;-80
2022/10/22 06:26:17;;;;;;;8.03;7.43;;;;;;;20.37;38.54;95851.97;6161350;28;105375;-79
2022/10/22 06:29:21;;;;;;;7.80;7.20;;;;;;;20.46;38.24;95859.09;6161376;28;107167;-80
2022/10/22 06:32:24;;;;;;;8.97;8.17;;;;;;;20.53;38.22;95853.47;6164584;28;103442;-79
2022/10/22 06:35:27;;;;;;;9.50;8.80;;;;;;;20.62;38.41;95843.84;6164365;28;103220;-80
2022/10/22 06:38:32;;;;;;;7.73;7.13;;;;;;;20.74;38.15;95852.28;6158039;28;105343;-80
2022/10/22 06:41:35;;;;;;;7.73;7.17;;;;;;;20.78;37.87;95858.63;6163676;28;103330;-79
2022/10/22 06:44:38;;;;;;;8.57;7.90;;;;;;;20.97;37.81;95860.59;6164666;28;103020;-78
2022/10/22 06:47:41;;;;;;;8.40;7.70;;;;;;;20.99;37.48;95858.47;6164050;28;103012;-79
2022/10/22 06:50:45;;;;;;;7.87;7.27;;;;;;;21.03;37.99;95859.50;6156475;28;107070;-79
2022/10/22 06:53:50;;;;;;;8.20;7.63;;;;;;;21.09;37.40;95856.56;6164305;28;103373;-78
2022/10/22 06:56:53;;;;;;;8.57;7.97;;;;;;;21.15;37.45;95859.97;6163900;28;103474;-81
2022/10/22 06:59:57;;;;;;;8.10;7.33;;;;;;;21.18;37.57;95851.44;6163988;28;103240;-80
2022/10/22 07:03:00;;;;;;;7.60;7.00;;;;;;;21.25;37.30;95857.22;6157572;28;103069;-79
2022/10/22 07:06:07;;;;;;;8.60;8.00;;;;;;;21.29;37.50;95868.88;6163822;28;102921;-79
2022/10/22 07:09:11;;;;;;;7.30;6.80;;;;;;;21.35;37.44;95859.81;6163428;28;105374;-79
2022/10/22 07:12:15;;;;;;;8.00;7.40;;;;;;;21.43;37.28;95853.06;6155355;28;103231;-79
2022/10/22 07:15:18;;;;;;;7.73;7.13;;;;;;;21.46;37.50;95849.81;6163284;28;103166;-79
2022/10/22 07:18:21;;;;;;;8.00;7.30;;;;;;;21.48;37.28;95853.00;6163815;28;102864;-79
2022/10/22 07:21:25;;;;;;;8.17;7.57;;;;;;;21.50;37.50;95840.19;6163883;28;103174;-79
2022/10/22 07:24:30;;;;;;;8.40;7.77;;;;;;;21.57;37.31;95847.88;6155541;28;106252;-78
2022/10/22 07:27:33;;;;;;;7.40;6.90;;;;;;;21.62;37.38;95845.13;6163876;28;103180;-79
2022/10/22 07:30:37;;;;;;;7.70;7.10;;;;;;;21.63;37.44;95849.38;6165041;28;103248;-78
2022/10/22 07:33:41;;;;;;;7.67;7.10;;;;;;;21.67;37.29;95847.75;6164570;28;103502;-78
2022/10/22 07:36:44;;;;;;;8.03;7.43;;;;;;;21.69;37.27;95851.72;6158252;28;103983;-78
2022/10/22 07:39:49;;;;;;;7.40;6.90;;;;;;;21.73;37.32;95842.09;6165262;28;105507;-78
2022/10/22 07:42:52;;;;;;;8.10;7.50;;;;;;;21.76;37.18;95846.06;6165062;28;102909;-79
2022/10/22 07:45:55;;;;;;;7.57;6.97;;;;;;;21.78;37.12;95844.69;6160653;28;104157;-79
2022/10/22 07:48:59;;;;;;;8.00;7.40;;;;;;;21.78;37.57;95836.69;6160408;28;103619;-79
2022/10/22 07:52:03;;;;;;;7.63;7.03;;;;;;;21.84;37.17;95821.47;6165568;28;104149;-79
2022/10/22 07:55:08;;;;;;;8.23;7.63;;;;;;;21.84;37.54;95818.00;6169070;28;107627;-78
2022/10/22 07:58:11;;;;;;;7.63;7.13;;;;;;;21.86;37.65;95810.56;6161269;28;106039;-78
2022/10/22 08:01:14;;;;;;;7.50;7.00;;;;;;;21.90;37.31;95815.03;6168761;28;103653;-78
2022/10/22 08:04:17;;;;;;;7.63;6.93;;;;;;;21.90;37.37;95809.69;6169376;28;102982;-79
2022/10/22 08:07:21;;;;;;;8.30;7.60;;;;;;;21.90;37.32;95811.56;6168216;28;103636;-79
2022/10/22 08:10:25;;;;;;;7.93;7.30;;;;;;;21.91;37.40;95819.28;6160019;28;103887;-78
2022/10/22 08:13:30;;;;;;;7.70;7.10;;;;;;;21.96;37.11;95813.88;6168652;28;106682;-79
2022/10/22 08:16:34;;;;;;;7.10;6.60;;;;;;;21.96;37.47;95813.06;6168120;28;103263;-80
2022/10/22 08:19:38;;;;;;;7.83;7.23;;;;;;;21.95;37.38;95806.94;6165697;28;106835;-78
2022/10/22 08:22:41;;;;;;;7.33;6.73;;;;;;;21.96;37.57;95808.53;6163563;28;103416;-78
2022/10/22 08:25:46;;;;;;;7.43;6.83;;;;;;;21.97;37.45;95814.66;6167890;28;103029;-79
2022/10/22 08:28:49;;;;;;;7.97;7.27;;;;;;;21.97;37.42;95804.00;6167930;28;104985;-79
2022/10/22 08:31:54;;;;;;;7.20;6.60;;;;;;;21.96;37.71;95792.53;6160387;28;106215;-79
2022/10/22 08:34:57;;;;;;;7.27;6.73;;;;;;;21.95;37.28;95796.28;6168554;28;103544;-80
2022/10/22 08:38:01;;;;;;;7.57;6.80;;;;;;;21.96;37.81;95792.53;6168069;28;103379;-79
2022/10/22 08:41:10;;;;;;;7.03;6.53;;;;;;;21.95;37.79;95796.28;6168135;28;104075;-80
2022/10/22 08:44:51;;;;;;;7.67;7.07;;;;;;;21.95;37.86;95809.63;6160443;28;105258;-79
2022/10/22 08:48:18;;;;;;;7.50;6.90;;;;;;;21.92;37.55;95804.06;6156658;28;106924;-79
2022/10/22 08:51:24;;;;;;;7.00;6.50;;;;;;;21.92;37.71;95802.19;6168726;28;103670;-80
2022/10/22 08:54:36;;;;;;;7.30;6.80;;;;;;;21.89;37.90;95800.13;6160374;28;103786;-80
2022/10/22 08:57:48;;;;;;;7.90;7.30;;;;;;;21.85;37.85;95788.44;6169014;28;103142;-80
2022/10/22 09:00:59;;;;;;;7.00;6.47;;;;;;;21.86;37.74;95789.25;6167383;28;103219;-79
2022/10/22 09:04:09;;;;;;;7.73;6.93;;;;;;;21.84;37.74;95789.50;6166735;28;103458;-79
2022/10/22 09:07:12;;;;;;;7.27;6.77;;;;;;;21.84;37.61;95797.50;6158939;28;102990;-79
2022/10/22 09:10:15;;;;;;;7.50;7.00;;;;;;;21.81;38.02;95793.50;6166544;28;106129;-80
2022/10/22 09:13:22;;;;;;;7.80;7.20;;;;;;;21.84;37.74;95788.69;6166621;28;103935;-79
2022/10/22 09:16:35;;;;;;;8.30;7.60;;;;;;;21.82;37.86;95786.31;6162130;28;103718;-80
2022/10/22 09:19:47;;;;;;;8.00;7.40;;;;;;;21.84;37.98;95781.50;6162773;28;106297;-79
2022/10/22 09:22:57;;;;;;;7.70;7.10;;;;;;;21.89;37.75;95781.47;6165021;28;103321;-80
2022/10/22 09:26:00;;;;;;;7.83;7.23;;;;;;;21.85;37.82;95775.13;6165183;28;103238;-79
2022/10/22 09:29:06;;;;;;;7.43;6.93;;;;;;;21.86;37.75;95781.25;6157408;28;103013;-79
2022/10/22 09:32:09;;;;;;;6.93;6.43;;;;;;;21.88;37.52;95774.53;6165067;28;103286;-78
2022/10/22 09:35:14;;;;;;;7.47;6.77;;;;;;;21.89;38.21;95768.13;6165836;28;104048;-80
2022/10/22 09:38:20;;;;;;;7.23;6.73;;;;;;;21.87;37.85;95767.63;6165622;28;102753;-79
2022/10/22 09:41:28;;;;;;;7.50;6.93;;;;;;;21.90;37.96;95758.28;6157474;28;105513;-80
2022/10/22 09:44:36;;;;;;;7.23;6.73;;;;;;;21.90;37.86;95766.25;6165532;28;105115;-79
2022/10/22 09:47:41;;;;;;;7.40;6.90;;;;;;;21.91;37.68;95754.53;6165726;28;105214;-79
2022/10/22 09:51:11;;;;;;;8.07;7.47;;;;;;;21.90;37.58;95743.06;6157886;28;105393;-79
2022/10/22 09:54:18;;;;;;;8.10;7.50;;;;;;;21.88;37.64;95725.78;6164632;28;103214;-79
2022/10/22 09:57:22;;;;;;;7.73;7.23;;;;;;;21.92;37.69;95732.91;6166318;28;102934;-79
2022/10/22 10:00:28;;;;;;;7.80;7.20;;;;;;;21.87;37.67;95730.34;6165024;28;106441;-79
2022/10/22 10:03:32;;;;;;;7.53;6.93;;;;;;;21.92;37.83;95734.78;6156650;28;102821;-79
2022/10/22 10:06:37;;;;;;;7.37;6.87;;;;;;;21.89;38.03;95738.81;6165216;28;104985;-79
2022/10/22 10:09:41;;;;;;;7.70;7.10;;;;;;;21.90;37.84;95728.97;6164479;28;103305;-80
2022/10/22 10:12:48;;;;;;;7.60;7.00;;;;;;;21.89;37.50;95716.72;6165344;28;104590;-79
2022/10/22 10:15:58;;;;;;;7.60;7.00;;;;;;;21.90;37.64;95711.09;6156970;28;103156;-80
2022/10/22 10:19:24;;;;;;;7.60;7.00;;;;;;;21.91;37.71;95725.22;6164479;28;103290;-79
2022/10/22 10:22:44;;;;;;;7.83;7.23;;;;;;;21.86;37.68;95731.41;6164526;28;103441;-80
2022/10/22 10:25:53;;;;;;;8.00;7.40;;;;;;;21.85;37.83;95718.38;6156598;28;103605;-79
2022/10/22 10:29:07;;;;;;;8.00;7.33;;;;;;;21.83;37.99;95707.97;6164068;28;103401;-80
2022/10/22 10:32:27;;;;;;;7.60;7.10;;;;;;;21.83;38.16;95707.97;6165428;28;103251;-79
2022/10/22 10:35:40;;;;;;;7.80;7.20;;;;;;;21.83;37.77;95691.19;6163331;28;103516;-79
2022/10/22 10:38:55;;;;;;;8.10;7.50;;;;;;;21.82;37.86;95695.75;6159898;28;103381;-79
2022/10/22 10:42:05;;;;;;;8.93;8.13;;;;;;;21.82;38.21;95687.75;6164924;28;102933;-79
2022/10/22 10:45:18;;;;;;;8.67;7.97;;;;;;;21.81;38.20;95680.81;6164372;28;105261;-80
2022/10/22 10:48:34;;;;;;;7.63;7.13;;;;;;;21.78;38.19;95674.19;6157187;28;102795;-79
2022/10/22 10:51:46;;;;;;;8.50;7.80;;;;;;;21.75;38.18;95663.31;6164420;28;103340;-79
2022/10/22 10:55:00;;;;;;;7.93;7.33;;;;;;;21.75;37.98;95663.31;6164400;28;102992;-79
2022/10/22 10:58:18;;;;;;;7.97;7.37;;;;;;;21.75;38.52;95660.66;6164496;28;105479;-79
2022/10/22 11:01:34;;;;;;;8.57;7.87;;;;;;;21.74;38.29;95645.75;6159413;28;103628;-79
2022/10/22 11:05:03;;;;;;;7.97;7.37;;;;;;;21.70;38.34;95642.88;6164844;28;105364;-79
2022/10/22 11:08:13;;;;;;;8.27;7.67;;;;;;;21.70;38.19;95640.22;6146765;28;102848;-79
2022/10/22 11:11:21;;;;;;;8.73;8.13;;;;;;;21.67;38.27;95626.66;6155767;28;104989;-79
2022/10/22 11:14:30;;;;;;;8.10;7.50;;;;;;;21.67;38.39;95618.66;6163589;28;105925;-79
2022/10/22 11:17:40;;;;;;;8.63;7.93;;;;;;;21.67;38.25;95616.78;6164249;28;104196;-79
2022/10/22 11:21:03;;;;;;;8.50;7.80;;;;;;;21.67;38.57;95618.66;6164724;28;105348;-79
2022/10/22 11:24:16;;;;;;;8.87;8.17;;;;;;;21.63;38.48;95607.03;6159303;28;103388;-80
2022/10/22 11:27:27;;;;;;;8.43;7.80;;;;;;;21.66;38.41;95596.56;6167418;28;106454;-79
2022/10/22 11:30:34;;;;;;;8.80;8.10;;;;;;;21.61;38.30;95590.53;6168906;28;103381;-79
2022/10/22 11:33:44;;;;;;;8.13;7.47;;;;;;;21.65;38.10;95588.88;6160199;28;105938;-79
2022/10/22 11:36:50;;;;;;;8.93;8.27;;;;;;;21.58;38.13;95578.59;6168204;28;103326;-78
2022/10/22 11:39:58;;;;;;;9.00;8.30;;;;;;;21.61;38.12;95577.22;6168861;28;105232;-79
2022/10/22 11:43:05;;;;;;;8.50;7.90;;;;;;;21.54;38.26;95572.28;6168903;28;105105;-79
2022/10/22 11:46:27;;;;;;;8.80;8.10;;;;;;;21.49;38.72;95564.34;6160978;28;102977;-78
2022/10/22 11:49:43;;;;;;;7.97;7.37;;;;;;;21.49;38.38;95567.78;6169349;28;103011;-78
2022/10/22 11:52:59;;;;;;;9.47;8.67;;;;;;;21.47;38.45;95555.84;6168765;28;106125;-78
2022/10/22 11:56:24;;;;;;;8.77;8.07;;;;;;;21.45;39.01;95560.66;6161493;28;103308;-79
2022/10/22 11:59:39;;;;;;;8.87;8.17;;;;;;;21.41;38.35;95552.47;6167889;28;103399;-78
2022/10/22 12:02:44;;;;;;;8.27;7.67;;;;;;;21.42;38.78;95564.72;6151089;28;103178;-78
2022/10/22 12:06:03;;;;;;;8.60;7.97;;;;;;;21.43;38.48;95552.97;6168555;28;102761;-79
2022/10/22 12:09:10;;;;;;;8.73;8.13;;;;;;;21.39;38.49;95551.97;6159992;28;103216;-79
2022/10/22 12:12:15;;;;;;;8.10;7.43;;;;;;;21.39;38.61;95548.53;6168875;28;105796;-79
2022/10/22 12:15:24;;;;;;;8.80;8.10;;;;;;;21.39;38.54;95546.66;6167815;28;103630;-79
2022/10/22 12:18:34;;;;;;;8.67;7.97;;;;;;;21.36;38.90;95539.25;6162618;28;102682;-81
2022/10/22 12:21:39;;;;;;;8.57;7.87;;;;;;;21.37;38.92;95538.16;6166861;28;106692;-79
2022/10/22 12:24:46;;;;;;;8.60;7.87;;;;;;;21.36;38.71;95530.47;6167318;28;105103;-80
2022/10/22 12:27:52;;;;;;;8.13;7.43;;;;;;;21.33;38.79;95526.50;6168132;28;106243;-79
2022/10/22 12:30:59;;;;;;;8.53;7.83;;;;;;;21.32;38.83;95526.78;6159697;28;103457;-79
2022/10/22 12:34:02;;;;;;;8.57;7.97;;;;;;;21.34;38.55;95541.41;6166953;28;103474;-79
2022/10/22 12:37:06;;;;;;;8.43;7.83;;;;;;;21.32;38.54;95532.91;6165561;28;103519;-78
2022/10/22 12:40:23;;;;;;;8.47;7.87;;;;;;;21.30;38.51;95529.72;6166748;28;103230;-78
2022/10/22 12:43:28;;;;;;;8.57;7.87;;;;;;;21.28;38.61;95521.25;6158010;28;103229;-78
2022/10/22 12:46:36;;;;;;;8.47;7.87;;;;;;;21.30;38.41;95529.72;6167132;28;102567;-78
2022/10/22 12:49:42;;;;;;;8.73;8.13;;;;;;;21.29;38.93;95525.50;6166767;28;103004;-78
2022/10/22 12:52:46;;;;;;;8.20;7.57;;;;;;;21.26;38.79;95517.31;6158764;28;103058;-78
2022/10/22 12:55:54;;;;;;;7.90;7.37;;;;;;;21.27;39.11;95517.00;6166614;28;103719;-79
2022/10/22 12:59:02;;;;;;;9.17;8.37;;;;;;;21.26;38.96;95512.75;6166268;28;102959;-78
2022/10/22 13:02:17;;;;;;;8.23;7.63;;;;;;;21.27;39.05;95502.91;6166553;28;103266;-78
2022/10/22 13:05:27;;;;;;;8.83;8.13;;;;;;;21.26;39.08;95504.78;6157785;28;104786;-78
2022/10/22 13:08:34;;;;;;;8.70;8.00;;;;;;;21.24;38.90;95504.28;6165734;28;103791;-78
2022/10/22 13:11:41;;;;;;;8.50;7.90;;;;;;;21.25;39.01;95502.41;6166608;28;103041;-78
2022/10/22 13:14:46;;;;;;;8.37;7.77;;;;;;;21.22;38.80;95501.13;6161912;28;103594;-78
2022/10/22 13:17:49;;;;;;;8.03;7.43;;;;;;;21.22;38.91;95493.13;6161768;28;102996;-78
2022/10/22 13:20:54;;;;;;;8.60;7.90;;;;;;;21.24;38.86;95498.16;6166232;28;102991;-79
2022/10/22 13:24:00;;;;;;;8.60;8.00;;;;;;;21.21;38.76;95494.22;6165976;28;103655;-79
2022/10/22 13:27:09;;;;;;;8.63;8.00;;;;;;;21.22;38.92;95490.47;6158793;28;103588;-79
2022/10/22 13:30:20;;;;;;;8.50;7.83;;;;;;;21.22;39.06;95487.81;6149225;28;104756;-79
2022/10/22 13:33:26;;;;;;;8.90;8.20;;;;;;;21.20;39.18;95482.00;6166034;28;103761;-79
2022/10/22 13:36:29;;;;;;;8.30;7.70;;;;;;;21.18;38.81;95492.13;6166660;28;102769;-79
2022/10/22 13:39:34;;;;;;;8.57;7.97;;;;;;;21.17;39.06;95477.22;6157284;28;102992;-79
2022/10/22 13:42:39;;;;;;;8.07;7.47;;;;;;;21.15;39.27;95482.84;6165391;28;103150;-78
2022/10/22 13:45:43;;;;;;;9.23;8.53;;;;;;;21.16;39.23;95479.09;6166014;28;104098;-78
2022/10/22 13:48:49;;;;;;;8.80;8.10;;;;;;;21.14;39.17;95475.94;6161914;28;102731;-79
2022/10/22 13:51:55;;;;;;;9.03;8.33;;;;;;;21.14;38.98;95472.47;6160387;28;103553;-79
2022/10/22 13:54:58;;;;;;;8.67;7.97;;;;;;;21.14;39.04;95462.63;6165908;28;103555;-78
2022/10/22 13:58:10;;;;;;;8.50;7.90;;;;;;;21.13;39.04;95473.56;6165183;28;103154;-78
2022/10/22 14:01:20;;;;;;;8.40;7.80;;;;;;;21.11;38.88;95465.09;6157495;28;103365;-79
2022/10/22 14:04:23;;;;;;;8.70;8.00;;;;;;;21.13;39.20;95481.53;6165265;28;103253;-78
2022/10/22 14:07:26;;;;;;;8.47;7.87;;;;;;;21.11;39.00;95478.38;6164913;28;104791;-79
2022/10/22 14:10:30;;;;;;;8.93;8.23;;;;;;;21.09;38.88;95472.56;6165520;28;103402;-79
2022/10/22 14:13:34;;;;;;;8.00;7.40;;;;;;;21.10;38.91;95479.47;6157560;28;105333;-79
2022/10/22 14:16:39;;;;;;;8.30;7.70;;;;;;;21.08;39.25;95470.97;6165213;28;102971;-79
2022/10/22 14:19:45;;;;;;;8.47;7.87;;;;;;;21.10;39.36;95476.81;6164806;28;103375;-78
2022/10/22 14:22:50;;;;;;;8.63;8.03;;;;;;;21.08;39.16;95471.78;6162091;28;105250;-79
2022/10/22 14:25:54;;;;;;;8.50;7.90;;;;;;;21.07;39.16;95461.41;6160017;28;103310;-79
2022/10/22 14:28:58;;;;;;;9.07;8.37;;;;;;;21.02;38.86;95456.16;6163539;28;106264;-79